sensor_id;sensor_type;location;lat;lon;timestamp;P1;P2;P0
46591;PMS6003;32314;48.748;9.656;2022-12-29T00:01:47;25.25;25.25;23.25
46591;PMS6003;32314;48.748;9.656;2022-12-29T00:04:32;68.75;57.00;38.50
46591;PMS6003;32314;48.748;9.656;2022-12-29T00:07:18;50.50;46.75;31.50
46591;PMS6003;32314;48.748;9.656;2022-12-29T00:10:22;57.00;45.50;29.25
46591;PMS6003;32314;48.748;9.656;2022-12-29T00:13:10;34.25;30.50;22.50
46591;PMS6003;32314;48.748;9.656;2022-12-29T00:16:15;17.67;14.67;11.67
46591;PMS6003;32314;48.748;9.656;2022-12-29T00:19:12;14.00;10.00;9.00
46591;PMS6003;32314;48.748;9.656;2022-12-29T00:22:16;21.00;13.67;8.33
46591;PMS6003;32314;48.748;9.656;2022-12-29T00:25:21;13.67;10.00;6.00
46591;PMS6003;32314;48.748;9.656;2022-12-29T00:28:25;7.00;4.00;3.00
46591;PMS6003;32314;48.748;9.656;2022-12-29T00:31:29;4.00;4.00;3.00
46591;PMS6003;32314;48.748;9.656;2022-12-29T00:34:38;2.00;0.00;0.00
46591;PMS6003;32314;48.748;9.656;2022-12-29T00:37:44;4.00;4.00;3.00
46591;PMS6003;32314;48.748;9.656;2022-12-29T00:40:50;3.67;3.67;3.00
46591;PMS6003;32314;48.748;9.656;2022-12-29T00:43:54;10.00;6.00;4.00
46591;PMS6003;32314;48.748;9.656;2022-12-29T00:46:52;3.00;3.00;3.00
46591;PMS6003;32314;48.748;9.656;2022-12-29T00:49:38;6.00;6.00;4.00
46591;PMS6003;32314;48.748;9.656;2022-12-29T00:52:27;1.00;1.00;0.00
46591;PMS6003;32314;48.748;9.656;2022-12-29T00:55:13;7.00;7.00;4.00
46591;PMS6003;32314;48.748;9.656;2022-12-29T00:57:59;12.67;10.00;6.33
46591;PMS6003;32314;48.748;9.656;2022-12-29T01:00:45;16.00;10.00;7.67
46591;PMS6003;32314;48.748;9.656;2022-12-29T01:03:32;10.00;9.00;7.00
46591;PMS6003;32314;48.748;9.656;2022-12-29T01:06:28;7.00;6.00;4.67
46591;PMS6003;32314;48.748;9.656;2022-12-29T01:09:14;10.00;9.33;7.00
46591;PMS6003;32314;48.748;9.656;2022-12-29T01:12:19;9.33;6.00;4.00
46591;PMS6003;32314;48.748;9.656;2022-12-29T01:15:25;6.00;5.33;3.00
46591;PMS6003;32314;48.748;9.656;2022-12-29T01:18:11;5.33;3.00;3.00
46591;PMS6003;32314;48.748;9.656;2022-12-29T01:21:01;10.00;9.33;6.67
46591;PMS6003;32314;48.748;9.656;2022-12-29T01:23:50;6.00;5.33;4.00
46591;PMS6003;32314;48.748;9.656;2022-12-29T01:26:36;11.33;10.33;9.00
46591;PMS6003;32314;48.748;9.656;2022-12-29T01:29:22;6.00;6.00;4.00
46591;PMS6003;32314;48.748;9.656;2022-12-29T01:32:08;7.67;7.67;6.00
46591;PMS6003;32314;48.748;9.656;2022-12-29T01:34:54;6.33;6.33;3.33
46591;PMS6003;32314;48.748;9.656;2022-12-29T01:37:40;6.67;4.00;3.00
46591;PMS6003;32314;48.748;9.656;2022-12-29T01:40:26;8.67;6.33;4.00
46591;PMS6003;32314;48.748;9.656;2022-12-29T01:43:12;7.00;6.00;3.67
46591;PMS6003;32314;48.748;9.656;2022-12-29T01:46:00;5.00;3.33;1.00
46591;PMS6003;32314;48.748;9.656;2022-12-29T01:48:46;7.33;6.00;4.67
46591;PMS6003;32314;48.748;9.656;2022-12-29T01:51:48;7.33;5.33;4.00
46591;PMS6003;32314;48.748;9.656;2022-12-29T01:54:41;0.00;0.00;0.00
46591;PMS6003;32314;48.748;9.656;2022-12-29T01:57:31;11.75;9.50;8.00
46591;PMS6003;32314;48.748;9.656;2022-12-29T02:00:20;29.00;28.25;24.75
46591;PMS6003;32314;48.748;9.656;2022-12-29T02:03:06;32.25;30.75;27.75
46591;PMS6003;32314;48.748;9.656;2022-12-29T02:08:52;7.25;7.25;6.75
46591;PMS6003;32314;48.748;9.656;2022-12-29T02:11:41;1.67;1.67;1.67
46591;PMS6003;32314;48.748;9.656;2022-12-29T02:14:27;1.00;1.00;1.00
46591;PMS6003;32314;48.748;9.656;2022-12-29T02:17:31;0.67;0.67;0.00
46591;PMS6003;32314;48.748;9.656;2022-12-29T02:27:48;7.00;4.67;3.67
46591;PMS6003;32314;48.748;9.656;2022-12-29T02:33:53;4.00;3.67;1.00
46591;PMS6003;32314;48.748;9.656;2022-12-29T02:40:02;3.00;3.00;3.00
46591;PMS6003;32314;48.748;9.656;2022-12-29T02:46:07;9.00;3.67;2.33
46591;PMS6003;32314;48.748;9.656;2022-12-29T02:52:42;6.33;6.33;4.67
46591;PMS6003;32314;48.748;9.656;2022-12-29T02:55:32;14.75;14.75;14.75
46591;PMS6003;32314;48.748;9.656;2022-12-29T02:58:19;17.50;17.50;17.00
46591;PMS6003;32314;48.748;9.656;2022-12-29T03:01:28;4.33;4.33;4.33
46591;PMS6003;32314;48.748;9.656;2022-12-29T03:04:22;1.00;1.00;1.00
46591;PMS6003;32314;48.748;9.656;2022-12-29T03:07:30;0.00;0.00;0.00
46591;PMS6003;32314;48.748;9.656;2022-12-29T03:13:32;1.00;1.00;0.67
46591;PMS6003;32314;48.748;9.656;2022-12-29T03:16:52;1.00;1.00;1.00
46591;PMS6003;32314;48.748;9.656;2022-12-29T03:19:59;0.00;0.00;0.00
46591;PMS6003;32314;48.748;9.656;2022-12-29T03:23:00;0.00;0.00;0.00
46591;PMS6003;32314;48.748;9.656;2022-12-29T03:26:16;0.00;0.00;0.00
46591;PMS6003;32314;48.748;9.656;2022-12-29T03:29:05;1.00;1.00;1.00
46591;PMS6003;32314;48.748;9.656;2022-12-29T03:32:11;0.67;0.67;0.00
46591;PMS6003;32314;48.748;9.656;2022-12-29T03:34:58;0.00;0.00;0.00
46591;PMS6003;32314;48.748;9.656;2022-12-29T03:37:49;0.00;0.00;0.00
46591;PMS6003;32314;48.748;9.656;2022-12-29T03:40:39;0.00;0.00;0.00
46591;PMS6003;32314;48.748;9.656;2022-12-29T03:43:29;0.00;0.00;0.00
46591;PMS6003;32314;48.748;9.656;2022-12-29T03:46:16;0.00;0.00;0.00
46591;PMS6003;32314;48.748;9.656;2022-12-29T03:49:01;0.00;0.00;0.00
46591;PMS6003;32314;48.748;9.656;2022-12-29T03:51:47;0.00;0.00;0.00
46591;PMS6003;32314;48.748;9.656;2022-12-29T03:54:33;4.00;1.00;1.00
46591;PMS6003;32314;48.748;9.656;2022-12-29T03:57:19;3.00;1.00;1.00
46591;PMS6003;32314;48.748;9.656;2022-12-29T04:00:25;0.00;0.00;0.00
46591;PMS6003;32314;48.748;9.656;2022-12-29T04:03:11;0.00;0.00;0.00
46591;PMS6003;32314;48.748;9.656;2022-12-29T04:05:57;0.00;0.00;0.00
46591;PMS6003;32314;48.748;9.656;2022-12-29T04:08:43;0.00;0.00;0.00
46591;PMS6003;32314;48.748;9.656;2022-12-29T04:11:30;0.00;0.00;0.00
46591;PMS6003;32314;48.748;9.656;2022-12-29T04:14:16;0.00;0.00;0.00
46591;PMS6003;32314;48.748;9.656;2022-12-29T04:17:02;0.00;0.00;0.00
46591;PMS6003;32314;48.748;9.656;2022-12-29T04:19:48;0.00;0.00;0.00
46591;PMS6003;32314;48.748;9.656;2022-12-29T04:22:34;0.00;0.00;0.00
46591;PMS6003;32314;48.748;9.656;2022-12-29T04:25:21;0.00;0.00;0.00
46591;PMS6003;32314;48.748;9.656;2022-12-29T04:28:07;0.00;0.00;0.00
46591;PMS6003;32314;48.748;9.656;2022-12-29T04:31:02;0.00;0.00;0.00
46591;PMS6003;32314;48.748;9.656;2022-12-29T04:33:54;0.00;0.00;0.00
46591;PMS6003;32314;48.748;9.656;2022-12-29T04:36:42;0.00;0.00;0.00
46591;PMS6003;32314;48.748;9.656;2022-12-29T04:39:28;2.00;0.00;0.00
46591;PMS6003;32314;48.748;9.656;2022-12-29T04:42:14;0.00;0.00;0.00
46591;PMS6003;32314;48.748;9.656;2022-12-29T04:45:02;0.00;0.00;0.00
46591;PMS6003;32314;48.748;9.656;2022-12-29T04:47:55;1.00;0.00;0.00
46591;PMS6003;32314;48.748;9.656;2022-12-29T04:51:07;0.00;0.00;0.00
46591;PMS6003;32314;48.748;9.656;2022-12-29T04:53:57;0.00;0.00;0.00
46591;PMS6003;32314;48.748;9.656;2022-12-29T04:56:44;0.00;0.00;0.00
46591;PMS6003;32314;48.748;9.656;2022-12-29T04:59:33;0.00;0.00;0.00
46591;PMS6003;32314;48.748;9.656;2022-12-29T05:02:19;1.00;0.00;0.00
46591;PMS6003;32314;48.748;9.656;2022-12-29T05:05:09;0.00;0.00;0.00
46591;PMS6003;32314;48.748;9.656;2022-12-29T05:08:00;0.00;0.00;0.00
46591;PMS6003;32314;48.748;9.656;2022-12-29T05:10:50;0.00;0.00;0.00
46591;PMS6003;32314;48.748;9.656;2022-12-29T05:13:36;0.00;0.00;0.00
46591;PMS6003;32314;48.748;9.656;2022-12-29T05:16:23;0.00;0.00;0.00
46591;PMS6003;32314;48.748;9.656;2022-12-29T05:19:08;0.00;0.00;0.00
46591;PMS6003;32314;48.748;9.656;2022-12-29T05:21:54;0.00;0.00;0.00
46591;PMS6003;32314;48.748;9.656;2022-12-29T05:24:41;2.00;0.00;0.00
46591;PMS6003;32314;48.748;9.656;2022-12-29T05:27:27;0.67;0.67;0.33
46591;PMS6003;32314;48.748;9.656;2022-12-29T05:30:39;0.00;0.00;0.00
46591;PMS6003;32314;48.748;9.656;2022-12-29T05:33:27;0.00;0.00;0.00
46591;PMS6003;32314;48.748;9.656;2022-12-29T05:36:13;6.00;3.00;3.00
46591;PMS6003;32314;48.748;9.656;2022-12-29T05:39:02;1.67;1.00;0.67
46591;PMS6003;32314;48.748;9.656;2022-12-29T05:41:49;1.00;1.00;1.00
46591;PMS6003;32314;48.748;9.656;2022-12-29T05:44:35;4.00;1.00;1.00
46591;PMS6003;32314;48.748;9.656;2022-12-29T05:47:56;1.00;1.00;0.00
46591;PMS6003;32314;48.748;9.656;2022-12-29T05:51:09;0.67;0.00;0.00
46591;PMS6003;32314;48.748;9.656;2022-12-29T05:54:10;0.00;0.00;0.00
46591;PMS6003;32314;48.748;9.656;2022-12-29T05:56:56;0.67;0.67;0.00
46591;PMS6003;32314;48.748;9.656;2022-12-29T05:59:42;1.00;1.00;0.33
46591;PMS6003;32314;48.748;9.656;2022-12-29T06:02:29;0.00;0.00;0.00
46591;PMS6003;32314;48.748;9.656;2022-12-29T06:05:16;3.00;0.00;0.00
46591;PMS6003;32314;48.748;9.656;2022-12-29T06:08:02;0.00;0.00;0.00
46591;PMS6003;32314;48.748;9.656;2022-12-29T06:10:49;0.00;0.00;0.00
46591;PMS6003;32314;48.748;9.656;2022-12-29T06:13:36;0.00;0.00;0.00
46591;PMS6003;32314;48.748;9.656;2022-12-29T06:16:22;0.00;0.00;0.00
46591;PMS6003;32314;48.748;9.656;2022-12-29T06:19:10;0.00;0.00;0.00
46591;PMS6003;32314;48.748;9.656;2022-12-29T06:21:56;0.00;0.00;0.00
46591;PMS6003;32314;48.748;9.656;2022-12-29T06:24:42;0.00;0.00;0.00
46591;PMS6003;32314;48.748;9.656;2022-12-29T06:27:28;3.00;1.00;0.00
46591;PMS6003;32314;48.748;9.656;2022-12-29T06:30:14;1.00;1.00;0.67
46591;PMS6003;32314;48.748;9.656;2022-12-29T06:33:02;0.33;0.33;0.33
46591;PMS6003;32314;48.748;9.656;2022-12-29T06:35:48;1.00;1.00;0.00
46591;PMS6003;32314;48.748;9.656;2022-12-29T06:38:34;0.00;0.00;0.00
46591;PMS6003;32314;48.748;9.656;2022-12-29T06:41:20;0.00;0.00;0.00
46591;PMS6003;32314;48.748;9.656;2022-12-29T06:44:25;4.00;1.00;0.33
46591;PMS6003;32314;48.748;9.656;2022-12-29T06:47:15;16.33;14.00;7.00
46591;PMS6003;32314;48.748;9.656;2022-12-29T06:50:02;44.33;43.00;25.00
46591;PMS6003;32314;48.748;9.656;2022-12-29T06:52:48;15.00;12.00;10.00
46591;PMS6003;32314;48.748;9.656;2022-12-29T06:55:34;5.33;5.33;4.67
46591;PMS6003;32314;48.748;9.656;2022-12-29T06:58:19;12.33;9.67;9.00
46591;PMS6003;32314;48.748;9.656;2022-12-29T07:01:05;3.33;1.67;0.67
46591;PMS6003;32314;48.748;9.656;2022-12-29T07:03:51;6.00;6.00;3.33
46591;PMS6003;32314;48.748;9.656;2022-12-29T07:06:37;8.33;8.33;5.67
46591;PMS6003;32314;48.748;9.656;2022-12-29T07:09:23;15.67;13.00;9.33
46591;PMS6003;32314;48.748;9.656;2022-12-29T07:12:08;0.67;0.67;0.33
46591;PMS6003;32314;48.748;9.656;2022-12-29T07:14:54;4.00;4.00;3.00
46591;PMS6003;32314;48.748;9.656;2022-12-29T07:17:40;7.67;6.33;4.00
46591;PMS6003;32314;48.748;9.656;2022-12-29T07:20:26;0.33;0.33;0.00
46591;PMS6003;32314;48.748;9.656;2022-12-29T07:23:11;3.00;1.00;0.00
46591;PMS6003;32314;48.748;9.656;2022-12-29T07:26:07;5.33;3.00;1.00
46591;PMS6003;32314;48.748;9.656;2022-12-29T07:28:53;9.67;6.67;4.00
46591;PMS6003;32314;48.748;9.656;2022-12-29T07:31:40;1.00;1.00;1.00
46591;PMS6003;32314;48.748;9.656;2022-12-29T07:34:26;7.00;3.00;1.00
46591;PMS6003;32314;48.748;9.656;2022-12-29T07:37:12;6.00;6.00;4.00
46591;PMS6003;32314;48.748;9.656;2022-12-29T07:39:59;4.00;4.00;3.67
46591;PMS6003;32314;48.748;9.656;2022-12-29T07:42:46;3.00;3.00;1.00
46591;PMS6003;32314;48.748;9.656;2022-12-29T07:45:34;0.00;0.00;0.00
46591;PMS6003;32314;48.748;9.656;2022-12-29T07:48:27;0.00;0.00;0.00
46591;PMS6003;32314;48.748;9.656;2022-12-29T07:51:13;0.00;0.00;0.00
46591;PMS6003;32314;48.748;9.656;2022-12-29T07:53:59;3.33;3.00;3.00
46591;PMS6003;32314;48.748;9.656;2022-12-29T07:56:46;0.00;0.00;0.00
46591;PMS6003;32314;48.748;9.656;2022-12-29T07:59:31;0.00;0.00;0.00
46591;PMS6003;32314;48.748;9.656;2022-12-29T08:02:17;0.00;0.00;0.00
46591;PMS6003;32314;48.748;9.656;2022-12-29T08:05:03;1.00;1.00;1.00
46591;PMS6003;32314;48.748;9.656;2022-12-29T08:07:49;3.00;0.00;0.00
46591;PMS6003;32314;48.748;9.656;2022-12-29T08:10:35;0.00;0.00;0.00
46591;PMS6003;32314;48.748;9.656;2022-12-29T08:13:21;0.00;0.00;0.00
46591;PMS6003;32314;48.748;9.656;2022-12-29T08:16:07;0.00;0.00;0.00
46591;PMS6003;32314;48.748;9.656;2022-12-29T08:18:52;1.00;0.00;0.00
46591;PMS6003;32314;48.748;9.656;2022-12-29T08:21:38;6.00;0.00;0.00
46591;PMS6003;32314;48.748;9.656;2022-12-29T08:24:24;0.00;0.00;0.00
46591;PMS6003;32314;48.748;9.656;2022-12-29T08:27:10;1.00;1.00;1.00
46591;PMS6003;32314;48.748;9.656;2022-12-29T08:29:56;0.00;0.00;0.00
46591;PMS6003;32314;48.748;9.656;2022-12-29T08:32:41;0.33;0.00;0.00
46591;PMS6003;32314;48.748;9.656;2022-12-29T08:35:27;3.00;1.00;0.00
46591;PMS6003;32314;48.748;9.656;2022-12-29T08:38:13;0.00;0.00;0.00
46591;PMS6003;32314;48.748;9.656;2022-12-29T08:40:59;1.50;0.00;0.00
46591;PMS6003;32314;48.748;9.656;2022-12-29T08:43:47;0.00;0.00;0.00
46591;PMS6003;32314;48.748;9.656;2022-12-29T08:46:33;0.00;0.00;0.00
46591;PMS6003;32314;48.748;9.656;2022-12-29T08:49:19;0.00;0.00;0.00
46591;PMS6003;32314;48.748;9.656;2022-12-29T08:52:05;0.00;0.00;0.00
46591;PMS6003;32314;48.748;9.656;2022-12-29T08:54:50;0.00;0.00;0.00
46591;PMS6003;32314;48.748;9.656;2022-12-29T08:57:36;0.75;0.00;0.00
46591;PMS6003;32314;48.748;9.656;2022-12-29T09:00:28;0.00;0.00;0.00
46591;PMS6003;32314;48.748;9.656;2022-12-29T09:03:15;30.67;27.00;21.33
46591;PMS6003;32314;48.748;9.656;2022-12-29T09:06:01;3.00;0.00;0.00
46591;PMS6003;32314;48.748;9.656;2022-12-29T09:08:47;0.00;0.00;0.00
46591;PMS6003;32314;48.748;9.656;2022-12-29T09:11:33;1.25;1.25;1.00
46591;PMS6003;32314;48.748;9.656;2022-12-29T09:14:19;1.00;1.00;1.00
46591;PMS6003;32314;48.748;9.656;2022-12-29T09:17:06;1.00;1.00;1.00
46591;PMS6003;32314;48.748;9.656;2022-12-29T09:20:15;3.00;1.00;1.00
46591;PMS6003;32314;48.748;9.656;2022-12-29T09:23:03;1.00;1.00;1.00
46591;PMS6003;32314;48.748;9.656;2022-12-29T09:25:49;1.00;1.00;1.00
46591;PMS6003;32314;48.748;9.656;2022-12-29T09:28:35;0.00;0.00;0.00
46591;PMS6003;32314;48.748;9.656;2022-12-29T09:31:22;3.75;3.00;2.50
46591;PMS6003;32314;48.748;9.656;2022-12-29T09:34:07;5.50;3.00;3.00
46591;PMS6003;32314;48.748;9.656;2022-12-29T09:36:53;2.00;2.00;2.00
46591;PMS6003;32314;48.748;9.656;2022-12-29T09:39:41;3.00;1.50;1.00
46591;PMS6003;32314;48.748;9.656;2022-12-29T09:42:29;2.00;2.00;2.00
46591;PMS6003;32314;48.748;9.656;2022-12-29T09:45:22;1.00;1.00;1.00
46591;PMS6003;32314;48.748;9.656;2022-12-29T09:48:19;1.00;1.00;1.00
46591;PMS6003;32314;48.748;9.656;2022-12-29T09:51:08;2.00;2.00;1.00
46591;PMS6003;32314;48.748;9.656;2022-12-29T09:53:58;1.00;0.00;0.00
46591;PMS6003;32314;48.748;9.656;2022-12-29T09:56:46;1.00;1.00;1.00
46591;PMS6003;32314;48.748;9.656;2022-12-29T09:59:39;1.50;1.50;1.00
46591;PMS6003;32314;48.748;9.656;2022-12-29T10:02:29;2.25;2.00;2.00
46591;PMS6003;32314;48.748;9.656;2022-12-29T10:05:20;1.00;1.00;1.00
46591;PMS6003;32314;48.748;9.656;2022-12-29T10:08:24;1.00;1.00;1.00
46591;PMS6003;32314;48.748;9.656;2022-12-29T10:14:14;1.25;1.25;1.00
46591;PMS6003;32314;48.748;9.656;2022-12-29T10:20:18;2.25;2.25;2.25
46591;PMS6003;32314;48.748;9.656;2022-12-29T10:23:24;2.00;2.00;1.75
46591;PMS6003;32314;48.748;9.656;2022-12-29T10:26:21;1.00;1.00;1.00
46591;PMS6003;32314;48.748;9.656;2022-12-29T10:29:19;3.00;3.00;2.00
46591;PMS6003;32314;48.748;9.656;2022-12-29T10:32:09;1.00;1.00;1.00
46591;PMS6003;32314;48.748;9.656;2022-12-29T10:35:20;2.00;2.00;2.00
46591;PMS6003;32314;48.748;9.656;2022-12-29T10:38:13;1.00;1.00;1.00
46591;PMS6003;32314;48.748;9.656;2022-12-29T10:44:14;20.50;17.50;13.50
46591;PMS6003;32314;48.748;9.656;2022-12-29T10:47:03;5.00;4.00;3.50
46591;PMS6003;32314;48.748;9.656;2022-12-29T10:49:52;17.75;16.25;12.25
46591;PMS6003;32314;48.748;9.656;2022-12-29T10:52:39;2.00;2.00;2.00
46591;PMS6003;32314;48.748;9.656;2022-12-29T10:55:26;3.00;1.00;1.00
46591;PMS6003;32314;48.748;9.656;2022-12-29T10:58:14;2.50;2.50;2.50
46591;PMS6003;32314;48.748;9.656;2022-12-29T11:01:01;1.00;1.00;0.25
46591;PMS6003;32314;48.748;9.656;2022-12-29T11:03:51;2.00;2.00;1.00
46591;PMS6003;32314;48.748;9.656;2022-12-29T11:06:45;1.00;1.00;1.00
46591;PMS6003;32314;48.748;9.656;2022-12-29T11:09:31;1.00;1.00;0.50
46591;PMS6003;32314;48.748;9.656;2022-12-29T11:12:23;1.00;1.00;1.00
46591;PMS6003;32314;48.748;9.656;2022-12-29T11:15:14;1.00;1.00;1.00
46591;PMS6003;32314;48.748;9.656;2022-12-29T11:18:01;1.75;1.75;1.00
46591;PMS6003;32314;48.748;9.656;2022-12-29T11:20:47;2.25;2.25;2.00
46591;PMS6003;32314;48.748;9.656;2022-12-29T11:23:39;2.00;2.00;2.00
46591;PMS6003;32314;48.748;9.656;2022-12-29T11:26:28;1.00;1.00;1.00
46591;PMS6003;32314;48.748;9.656;2022-12-29T11:29:25;3.00;3.00;3.00
46591;PMS6003;32314;48.748;9.656;2022-12-29T11:35:13;1.75;1.75;1.50
46591;PMS6003;32314;48.748;9.656;2022-12-29T11:38:19;2.25;2.25;2.00
46591;PMS6003;32314;48.748;9.656;2022-12-29T11:41:10;1.00;1.00;1.00
46591;PMS6003;32314;48.748;9.656;2022-12-29T11:43:58;1.00;1.00;1.00
46591;PMS6003;32314;48.748;9.656;2022-12-29T11:46:47;3.50;2.00;1.00
46591;PMS6003;32314;48.748;9.656;2022-12-29T11:49:35;1.00;1.00;1.00
46591;PMS6003;32314;48.748;9.656;2022-12-29T11:52:24;1.00;1.00;1.00
46591;PMS6003;32314;48.748;9.656;2022-12-29T11:55:21;0.00;0.00;0.00
46591;PMS6003;32314;48.748;9.656;2022-12-29T11:58:11;1.00;1.00;0.50
46591;PMS6003;32314;48.748;9.656;2022-12-29T12:01:04;0.50;0.50;0.00
46591;PMS6003;32314;48.748;9.656;2022-12-29T12:04:07;2.75;0.75;0.75
46591;PMS6003;32314;48.748;9.656;2022-12-29T12:07:00;2.00;2.00;2.00
46591;PMS6003;32314;48.748;9.656;2022-12-29T12:09:54;1.00;1.00;0.25
46591;PMS6003;32314;48.748;9.656;2022-12-29T12:13:03;1.00;1.00;1.00
46591;PMS6003;32314;48.748;9.656;2022-12-29T12:18:48;0.75;0.75;0.00
46591;PMS6003;32314;48.748;9.656;2022-12-29T12:21:41;1.00;1.00;1.00
46591;PMS6003;32314;48.748;9.656;2022-12-29T12:27:29;1.25;1.25;1.00
46591;PMS6003;32314;48.748;9.656;2022-12-29T12:30:23;3.00;1.00;1.00
46591;PMS6003;32314;48.748;9.656;2022-12-29T12:33:16;0.25;0.25;0.25
46591;PMS6003;32314;48.748;9.656;2022-12-29T12:58:32;3.25;3.00;2.00
46591;PMS6003;32314;48.748;9.656;2022-12-29T13:01:28;2.00;2.00;2.00
46591;PMS6003;32314;48.748;9.656;2022-12-29T13:11:05;3.00;1.00;1.00
46591;PMS6003;32314;48.748;9.656;2022-12-29T13:14:02;1.00;1.00;1.00
46591;PMS6003;32314;48.748;9.656;2022-12-29T13:26:32;0.50;0.50;0.00
46591;PMS6003;32314;48.748;9.656;2022-12-29T13:38:45;1.25;1.25;1.00
46591;PMS6003;32314;48.748;9.656;2022-12-29T13:41:42;2.50;2.50;2.00
46591;PMS6003;32314;48.748;9.656;2022-12-29T13:47:37;0.00;0.00;0.00
46591;PMS6003;32314;48.748;9.656;2022-12-29T13:50:27;2.25;0.00;0.00
46591;PMS6003;32314;48.748;9.656;2022-12-29T13:53:15;2.25;0.00;0.00
46591;PMS6003;32314;48.748;9.656;2022-12-29T13:56:15;0.00;0.00;0.00
46591;PMS6003;32314;48.748;9.656;2022-12-29T14:05:30;2.25;2.25;2.25
46591;PMS6003;32314;48.748;9.656;2022-12-29T14:08:17;6.50;4.50;4.25
46591;PMS6003;32314;48.748;9.656;2022-12-29T14:11:10;4.00;4.00;4.00
46591;PMS6003;32314;48.748;9.656;2022-12-29T14:13:57;2.00;2.00;1.50
46591;PMS6003;32314;48.748;9.656;2022-12-29T14:16:43;2.00;2.00;1.75
46591;PMS6003;32314;48.748;9.656;2022-12-29T14:19:31;1.50;1.50;1.00
46591;PMS6003;32314;48.748;9.656;2022-12-29T14:22:24;1.00;1.00;1.00
46591;PMS6003;32314;48.748;9.656;2022-12-29T14:25:55;4.25;3.00;2.00
46591;PMS6003;32314;48.748;9.656;2022-12-29T14:28:35;2.50;2.50;2.00
46591;PMS6003;32314;48.748;9.656;2022-12-29T14:34:16;2.75;2.75;2.00
46591;PMS6003;32314;48.748;9.656;2022-12-29T14:37:02;2.00;2.00;2.00
46591;PMS6003;32314;48.748;9.656;2022-12-29T14:39:48;1.00;1.00;1.00
46591;PMS6003;32314;48.748;9.656;2022-12-29T14:42:34;1.25;1.25;1.00
46591;PMS6003;32314;48.748;9.656;2022-12-29T14:51:29;1.00;1.00;1.00
46591;PMS6003;32314;48.748;9.656;2022-12-29T14:55:02;1.75;1.75;1.00
46591;PMS6003;32314;48.748;9.656;2022-12-29T14:57:31;2.50;2.50;1.75
46591;PMS6003;32314;48.748;9.656;2022-12-29T15:00:22;2.00;2.00;1.00
46591;PMS6003;32314;48.748;9.656;2022-12-29T15:03:14;2.00;2.00;1.50
46591;PMS6003;32314;48.748;9.656;2022-12-29T15:08:50;2.00;2.00;1.25
46591;PMS6003;32314;48.748;9.656;2022-12-29T15:12:41;2.00;2.00;2.00
46591;PMS6003;32314;48.748;9.656;2022-12-29T15:15:16;4.00;2.00;1.50
46591;PMS6003;32314;48.748;9.656;2022-12-29T15:18:28;2.25;1.25;0.50
46591;PMS6003;32314;48.748;9.656;2022-12-29T15:22:07;2.00;2.00;2.00
46591;PMS6003;32314;48.748;9.656;2022-12-29T15:24:44;3.75;2.00;1.75
46591;PMS6003;32314;48.748;9.656;2022-12-29T15:27:36;2.00;2.00;2.00
46591;PMS6003;32314;48.748;9.656;2022-12-29T15:42:09;5.50;5.50;4.00
46591;PMS6003;32314;48.748;9.656;2022-12-29T15:48:57;10.00;10.00;7.00
46591;PMS6003;32314;48.748;9.656;2022-12-29T15:51:53;7.50;7.50;6.00
46591;PMS6003;32314;48.748;9.656;2022-12-29T15:54:39;6.50;5.00;4.00
46591;PMS6003;32314;48.748;9.656;2022-12-29T15:57:28;1.00;1.00;0.75
46591;PMS6003;32314;48.748;9.656;2022-12-29T16:00:24;3.00;3.00;3.00
46591;PMS6003;32314;48.748;9.656;2022-12-29T16:03:13;4.00;1.50;1.50
46591;PMS6003;32314;48.748;9.656;2022-12-29T16:09:18;1.00;1.00;1.00
46591;PMS6003;32314;48.748;9.656;2022-12-29T16:12:20;3.75;3.00;1.00
46591;PMS6003;32314;48.748;9.656;2022-12-29T16:15:11;3.50;1.00;1.00
46591;PMS6003;32314;48.748;9.656;2022-12-29T16:17:59;1.50;1.50;1.00
46591;PMS6003;32314;48.748;9.656;2022-12-29T16:20:45;3.25;3.25;3.00
46591;PMS6003;32314;48.748;9.656;2022-12-29T16:23:31;1.00;1.00;1.00
46591;PMS6003;32314;48.748;9.656;2022-12-29T16:26:20;4.50;3.00;2.25
46591;PMS6003;32314;48.748;9.656;2022-12-29T16:29:07;0.00;0.00;0.00
46591;PMS6003;32314;48.748;9.656;2022-12-29T16:31:54;22.33;22.33;15.33
46591;PMS6003;32314;48.748;9.656;2022-12-29T16:34:50;24.67;22.67;18.33
46591;PMS6003;32314;48.748;9.656;2022-12-29T16:37:48;9.25;9.25;6.50
46591;PMS6003;32314;48.748;9.656;2022-12-29T16:40:38;6.00;6.00;6.00
46591;PMS6003;32314;48.748;9.656;2022-12-29T16:43:27;2.50;2.50;2.50
46591;PMS6003;32314;48.748;9.656;2022-12-29T16:46:21;6.00;6.00;5.00
46591;PMS6003;32314;48.748;9.656;2022-12-29T16:49:14;9.75;7.00;6.75
46591;PMS6003;32314;48.748;9.656;2022-12-29T16:52:10;0.75;0.75;0.75
46591;PMS6003;32314;48.748;9.656;2022-12-29T16:55:03;1.00;1.00;0.00
46591;PMS6003;32314;48.748;9.656;2022-12-29T16:57:50;3.00;3.00;1.00
46591;PMS6003;32314;48.748;9.656;2022-12-29T17:00:38;17.50;14.75;10.25
46591;PMS6003;32314;48.748;9.656;2022-12-29T17:03:27;27.67;26.00;18.33
46591;PMS6003;32314;48.748;9.656;2022-12-29T17:06:19;2.00;2.00;1.25
46591;PMS6003;32314;48.748;9.656;2022-12-29T17:09:16;1.25;1.25;1.00
46591;PMS6003;32314;48.748;9.656;2022-12-29T17:12:05;0.00;0.00;0.00
46591;PMS6003;32314;48.748;9.656;2022-12-29T17:14:58;9.00;7.00;5.50
46591;PMS6003;32314;48.748;9.656;2022-12-29T17:17:45;4.00;4.00;4.00
46591;PMS6003;32314;48.748;9.656;2022-12-29T17:20:32;0.50;0.50;0.25
46591;PMS6003;32314;48.748;9.656;2022-12-29T17:23:18;4.00;4.00;4.00
46591;PMS6003;32314;48.748;9.656;2022-12-29T17:26:04;2.00;2.00;2.00
46591;PMS6003;32314;48.748;9.656;2022-12-29T17:28:52;2.25;2.25;2.00
46591;PMS6003;32314;48.748;9.656;2022-12-29T17:31:37;10.25;9.00;7.75
46591;PMS6003;32314;48.748;9.656;2022-12-29T17:34:23;3.50;2.75;2.75
46591;PMS6003;32314;48.748;9.656;2022-12-29T17:40:40;8.50;6.00;5.50
46591;PMS6003;32314;48.748;9.656;2022-12-29T17:43:27;2.25;2.00;1.00
46591;PMS6003;32314;48.748;9.656;2022-12-29T17:46:13;1.00;1.00;1.00
46591;PMS6003;32314;48.748;9.656;2022-12-29T17:48:59;3.00;3.00;3.00
46591;PMS6003;32314;48.748;9.656;2022-12-29T17:51:45;19.67;19.67;13.00
46591;PMS6003;32314;48.748;9.656;2022-12-29T17:54:32;10.67;7.67;6.33
46591;PMS6003;32314;48.748;9.656;2022-12-29T17:57:19;9.50;7.00;6.00
46591;PMS6003;32314;48.748;9.656;2022-12-29T18:00:07;7.00;7.00;5.33
46591;PMS6003;32314;48.748;9.656;2022-12-29T18:02:58;6.25;5.00;4.00
46591;PMS6003;32314;48.748;9.656;2022-12-29T18:05:44;6.25;4.00;3.50
46591;PMS6003;32314;48.748;9.656;2022-12-29T18:08:30;1.50;1.50;1.50
46591;PMS6003;32314;48.748;9.656;2022-12-29T18:11:20;0.00;0.00;0.00
46591;PMS6003;32314;48.748;9.656;2022-12-29T18:14:11;4.00;1.00;1.00
46591;PMS6003;32314;48.748;9.656;2022-12-29T18:17:03;3.00;3.00;1.00
46591;PMS6003;32314;48.748;9.656;2022-12-29T18:19:56;1.00;1.00;1.00
46591;PMS6003;32314;48.748;9.656;2022-12-29T18:22:42;4.00;4.00;3.00
46591;PMS6003;32314;48.748;9.656;2022-12-29T18:25:41;3.00;3.00;3.00
46591;PMS6003;32314;48.748;9.656;2022-12-29T18:28:28;0.00;0.00;0.00
46591;PMS6003;32314;48.748;9.656;2022-12-29T18:31:22;6.00;6.00;4.00
46591;PMS6003;32314;48.748;9.656;2022-12-29T18:34:13;8.33;8.33;6.00
46591;PMS6003;32314;48.748;9.656;2022-12-29T18:36:59;4.00;1.67;1.00
46591;PMS6003;32314;48.748;9.656;2022-12-29T18:39:47;13.67;13.00;10.00
46591;PMS6003;32314;48.748;9.656;2022-12-29T18:42:38;10.00;7.00;6.00
46591;PMS6003;32314;48.748;9.656;2022-12-29T18:45:34;6.33;6.33;4.00
46591;PMS6003;32314;48.748;9.656;2022-12-29T18:48:31;11.33;6.67;4.00
46591;PMS6003;32314;48.748;9.656;2022-12-29T18:51:29;4.67;4.67;4.00
46591;PMS6003;32314;48.748;9.656;2022-12-29T18:54:22;1.00;1.00;1.00